Time;durP1;ratioP1;P1;durP2;ratioP2;P2;SDS_P1;SDS_P2;PMS_P1;PMS_P2;Temp;Humidity;BMP_temperature;BMP_pressure;BME280_temperature;BME280_humidity;BME280_pressure;Samples;Min_cycle;Max_cycle;Signal;HPM_P1;HPM_P2
2022/09/12 00:02:07;;;;;;;1999.90;999.90;;;17.10;99.90;;;;;;5247455;28;20031;-76
2022/09/12 00:04:37;;;;;;;1999.90;999.90;;;17.30;99.90;;;;;;5246011;28;20801;-76
2022/09/12 00:07:08;;;;;;;1999.90;999.90;;;17.30;99.90;;;;;;5247538;28;20029;-76
2022/09/12 00:09:39;;;;;;;1999.90;999.90;;;17.40;99.90;;;;;;5246977;28;20047;-76
2022/09/12 00:12:10;;;;;;;1999.90;999.90;;;17.40;99.90;;;;;;5247041;28;20033;-76
2022/09/12 00:14:41;;;;;;;1999.90;999.90;;;17.10;99.90;;;;;;5245320;28;20016;-76
2022/09/12 00:17:11;;;;;;;1999.90;999.90;;;17.20;99.90;;;;;;5247071;28;20033;-76
2022/09/12 00:19:42;;;;;;;1999.90;999.90;;;16.90;99.90;;;;;;5247235;28;20699;-76
2022/09/12 00:22:13;;;;;;;1999.90;999.90;;;17.00;99.90;;;;;;5246011;28;20085;-76
2022/09/12 00:24:44;;;;;;;1999.90;999.90;;;17.20;99.90;;;;;;5247027;28;20029;-76
2022/09/12 00:27:15;;;;;;;1999.90;999.90;;;17.20;99.90;;;;;;5245867;28;20027;-75
2022/09/12 00:29:45;;;;;;;1999.90;999.90;;;17.00;99.90;;;;;;5246886;28;20038;-76
2022/09/12 00:32:17;;;;;;;1999.90;999.90;;;17.00;99.90;;;;;;5247359;28;20031;-76
2022/09/12 00:34:48;;;;;;;1999.90;999.90;;;17.10;99.90;;;;;;5247247;28;20036;-76
2022/09/12 00:37:19;;;;;;;1999.90;999.90;;;17.20;99.90;;;;;;5246295;28;20737;-75
2022/09/12 00:39:49;;;;;;;1999.90;999.90;;;17.10;99.90;;;;;;5245013;28;20024;-75
2022/09/12 00:42:20;;;;;;;1999.90;999.90;;;17.10;99.90;;;;;;5246856;28;20070;-76
2022/09/12 00:44:51;;;;;;;1999.90;999.90;;;17.30;99.90;;;;;;5247396;28;20377;-76
2022/09/12 00:47:30;;;;;;;1999.90;999.90;;;17.20;99.90;;;;;;5246815;28;20035;-76
2022/09/12 00:50:07;;;;;;;1999.90;999.90;;;17.20;99.90;;;;;;5246328;28;20036;-76
2022/09/12 00:52:44;;;;;;;1999.90;999.90;;;17.00;99.90;;;;;;5245347;28;20031;-76
2022/09/12 00:55:38;;;;;;;1999.90;999.90;;;17.00;99.90;;;;;;5246650;28;20028;-75
2022/09/12 00:58:35;;;;;;;1999.90;999.90;;;17.00;99.90;;;;;;5246569;28;20115;-76
2022/09/12 01:01:06;;;;;;;1999.90;999.90;;;17.10;99.90;;;;;;5245760;28;20059;-76
2022/09/12 01:03:37;;;;;;;1999.90;999.90;;;17.20;99.90;;;;;;5246493;28;20067;-76
2022/09/12 01:06:21;;;;;;;1999.90;999.90;;;17.20;99.90;;;;;;5246478;28;20027;-76
2022/09/12 01:08:54;;;;;;;1999.90;999.90;;;17.20;99.90;;;;;;5246288;28;20469;-76
2022/09/12 01:11:26;;;;;;;1999.90;999.90;;;16.90;99.90;;;;;;5245248;28;20029;-75
2022/09/12 01:13:56;;;;;;;1999.90;999.90;;;16.90;99.90;;;;;;5246178;28;20063;-76
2022/09/12 01:16:28;;;;;;;1999.90;999.90;;;17.10;99.90;;;;;;5246614;28;20472;-76
2022/09/12 01:19:04;;;;;;;1999.90;999.90;;;16.90;99.90;;;;;;5246415;28;20089;-76
2022/09/12 01:22:08;;;;;;;1999.90;999.90;;;17.00;99.90;;;;;;5246599;28;20116;-74
2022/09/12 01:25:13;;;;;;;1999.90;999.90;;;17.10;99.90;;;;;;5235137;28;20036;-76
2022/09/12 01:27:53;;;;;;;1999.90;999.90;;;17.10;99.90;;;;;;5245227;28;20056;-75
2022/09/12 01:30:32;;;;;;;;;;;17.10;99.90;;;;;;5246747;28;20067;-75
2022/09/12 01:33:18;;;;;;;1999.90;999.90;;;17.10;99.90;;;;;;5246529;28;20363;-76
2022/09/12 01:36:10;;;;;;;1999.90;999.90;;;16.80;99.90;;;;;;5246097;28;20044;-76
2022/09/12 01:38:48;;;;;;;1999.90;999.90;;;17.00;99.90;;;;;;5245894;28;20051;-76
2022/09/12 01:41:53;;;;;;;1999.90;999.90;;;17.10;99.90;;;;;;5246177;28;20029;-75
2022/09/12 01:44:39;;;;;;;1999.90;999.90;;;17.10;99.90;;;;;;5245824;28;20029;-76
2022/09/12 01:47:28;;;;;;;1999.90;999.90;;;17.20;99.90;;;;;;5245606;28;20025;-76
2022/09/12 01:50:05;;;;;;;1999.90;999.90;;;17.20;99.90;;;;;;5244801;28;20056;-76
2022/09/12 01:52:55;;;;;;;1999.90;999.90;;;17.00;99.90;;;;;;5247161;28;20052;-76
2022/09/12 01:55:31;;;;;;;1999.90;999.90;;;17.10;99.90;;;;;;5249738;28;20025;-76
2022/09/12 01:58:08;;;;;;;1999.90;999.90;;;17.00;99.90;;;;;;5249162;28;20365;-76
2022/09/12 02:00:47;;;;;;;1999.90;999.90;;;17.10;99.90;;;;;;5248557;28;20077;-76
2022/09/12 02:03:29;;;;;;;1999.90;999.90;;;17.10;99.90;;;;;;5248241;28;20503;-76
2022/09/12 02:06:08;;;;;;;1999.90;999.90;;;17.30;99.90;;;;;;5249078;28;20054;-76
2022/09/12 02:08:45;;;;;;;1999.90;999.90;;;17.30;99.90;;;;;;5249394;28;20036;-75
2022/09/12 02:11:18;;;;;;;1999.90;999.90;;;17.40;99.90;;;;;;5249544;28;20036;-76
2022/09/12 02:14:01;;;;;;;1999.90;999.90;;;17.30;99.90;;;;;;5249476;28;20024;-76
2022/09/12 02:16:47;;;;;;;1999.90;999.90;;;17.30;99.90;;;;;;5249034;28;20020;-76
2022/09/12 02:19:26;;;;;;;1999.90;999.90;;;17.10;99.90;;;;;;5248942;28;20039;-76
2022/09/12 02:22:00;;;;;;;1999.90;999.90;;;17.30;99.90;;;;;;5249447;28;20033;-76
2022/09/12 02:24:37;;;;;;;1999.90;999.90;;;17.30;99.90;;;;;;5249307;28;20028;-76
2022/09/12 02:27:15;;;;;;;1999.90;999.90;;;17.30;99.90;;;;;;5249256;28;20031;-76
2022/09/12 02:29:47;;;;;;;1999.90;999.90;;;17.40;99.90;;;;;;5249164;28;20025;-76
2022/09/12 02:33:00;;;;;;;1999.90;999.90;;;17.30;99.90;;;;;;5249305;28;20046;-76
2022/09/12 02:35:48;;;;;;;1999.90;999.90;;;17.40;99.90;;;;;;5248628;28;20043;-76
2022/09/12 02:38:34;;;;;;;1999.90;999.90;;;17.40;99.90;;;;;;5248944;28;20669;-76
2022/09/12 02:41:06;;;;;;;1999.90;999.90;;;17.60;99.90;;;;;;5247681;28;20090;-75
2022/09/12 02:43:37;;;;;;;1999.90;999.90;;;17.30;99.90;;;;;;5249121;28;20028;-76
2022/09/12 02:46:14;;;;;;;1999.90;999.90;;;17.40;99.90;;;;;;5247597;28;20504;-76
2022/09/12 02:48:45;;;;;;;1999.90;999.90;;;17.60;99.90;;;;;;5248888;28;20033;-76
2022/09/12 02:51:16;;;;;;;1999.90;999.90;;;17.50;99.90;;;;;;5248596;28;20078;-76
2022/09/12 02:53:48;;;;;;;1999.90;999.90;;;17.50;99.90;;;;;;5248839;28;20032;-76
2022/09/12 02:56:27;;;;;;;1999.90;999.90;;;17.20;99.90;;;;;;5247676;28;20036;-76
2022/09/12 02:59:03;;;;;;;1999.90;999.90;;;17.30;99.90;;;;;;5248734;28;20058;-75
2022/09/12 03:01:56;;;;;;;1999.90;999.90;;;17.40;99.90;;;;;;5248472;28;20127;-76
2022/09/12 03:04:45;;;;;;;1999.90;999.90;;;17.60;99.90;;;;;;5248408;28;20032;-76
2022/09/12 03:07:45;;;;;;;1999.90;999.90;;;18.00;99.90;;;;;;5248920;28;20028;-75
2022/09/12 03:10:31;;;;;;;;;;;18.10;99.90;;;;;;5248493;28;20053;-76
2022/09/12 03:13:05;;;;;;;1999.90;999.90;;;18.40;99.90;;;;;;5248489;28;19951;-76
2022/09/12 03:15:54;;;;;;;1999.90;999.90;;;18.30;99.90;;;;;;5248627;28;20020;-76
2022/09/12 03:18:55;;;;;;;1999.90;999.90;;;18.40;99.90;;;;;;5248629;28;20524;-76
2022/09/12 03:21:47;;;;;;;1999.90;999.90;;;18.20;99.90;;;;;;5248867;28;20078;-76
2022/09/12 03:24:47;;;;;;;1999.90;999.90;;;18.30;99.90;;;;;;5247363;28;20052;-76
2022/09/12 03:27:35;;;;;;;1999.90;999.90;;;18.40;99.90;;;;;;5248778;28;20021;-76
2022/09/12 03:30:07;;;;;;;1999.90;999.90;;;18.40;99.90;;;;;;5248261;28;20052;-75
2022/09/12 03:32:50;;;;;;;1999.90;999.90;;;18.20;99.90;;;;;;5248541;28;20048;-75
2022/09/12 03:35:23;;;;;;;1999.90;999.90;;;18.20;99.90;;;;;;5247440;28;20029;-75
2022/09/12 03:37:54;;;;;;;1999.90;999.90;;;18.30;99.90;;;;;;5247524;28;20094;-75
2022/09/12 03:40:25;;;;;;;1999.90;999.90;;;18.20;99.90;;;;;;5247533;28;20036;-75
2022/09/12 03:42:55;;;;;;;1999.90;999.90;;;18.10;99.90;;;;;;5248688;28;20040;-74
2022/09/12 03:45:26;;;;;;;1999.90;999.90;;;17.90;99.90;;;;;;5248933;28;20500;-74
2022/09/12 03:47:58;;;;;;;1999.90;999.90;;;18.10;99.90;;;;;;5247215;28;20024;-74
2022/09/12 03:50:28;;;;;;;1999.90;999.90;;;18.00;99.90;;;;;;5248001;28;20039;-74
2022/09/12 03:53:00;;;;;;;1999.90;999.90;;;18.20;99.90;;;;;;5247781;28;20586;-73
2022/09/12 03:55:30;;;;;;;1999.90;999.90;;;17.90;99.90;;;;;;5247749;28;20021;-73
2022/09/12 03:58:01;;;;;;;1999.90;999.90;;;17.80;99.90;;;;;;5247726;28;20044;-74
2022/09/12 04:00:32;;;;;;;1999.90;999.90;;;17.80;99.90;;;;;;5247510;28;20028;-73
2022/09/12 04:03:03;;;;;;;1999.90;999.90;;;17.70;99.90;;;;;;5246932;28;20441;-74
2022/09/12 04:05:34;;;;;;;1999.90;999.90;;;17.80;99.90;;;;;;5246567;28;20024;-73
2022/09/12 04:08:05;;;;;;;1999.90;999.90;;;17.60;99.90;;;;;;5246291;28;20028;-73
2022/09/12 04:10:36;;;;;;;1999.90;999.90;;;17.50;99.90;;;;;;5247785;28;20492;-73
2022/09/12 04:13:07;;;;;;;1999.90;999.90;;;17.40;99.90;;;;;;5247834;28;20029;-73
2022/09/12 04:15:38;;;;;;;1999.90;999.90;;;17.50;99.90;;;;;;5245818;28;20032;-72
2022/09/12 04:18:08;;;;;;;1999.90;999.90;;;17.70;99.90;;;;;;5246366;28;20073;-72
2022/09/12 04:20:39;;;;;;;1999.90;999.90;;;17.30;99.90;;;;;;5247290;28;20487;-73
2022/09/12 04:23:10;;;;;;;1999.90;999.90;;;17.20;99.90;;;;;;5247488;28;20059;-73
2022/09/12 04:25:41;;;;;;;1999.90;999.90;;;17.20;99.90;;;;;;5247574;28;20448;-73
2022/09/12 04:28:12;;;;;;;1999.90;999.90;;;17.20;99.90;;;;;;5247517;28;20025;-73
2022/09/12 04:30:43;;;;;;;1999.90;999.90;;;17.30;99.90;;;;;;5247568;28;20028;-73
2022/09/12 04:33:13;;;;;;;1999.90;999.90;;;17.30;99.90;;;;;;5246340;28;20032;-72
2022/09/12 04:35:44;;;;;;;1999.90;999.90;;;17.30;99.90;;;;;;5246131;28;20020;-73
2022/09/12 04:38:15;;;;;;;1999.90;999.90;;;17.30;99.90;;;;;;5247165;28;20032;-74
2022/09/12 04:40:46;;;;;;;1999.90;999.90;;;17.30;99.90;;;;;;5247769;28;20033;-73
2022/09/12 04:43:17;;;;;;;1999.90;999.90;;;17.30;99.90;;;;;;5247973;28;20353;-74
2022/09/12 04:45:48;;;;;;;1999.90;999.90;;;17.30;99.90;;;;;;5247110;28;20020;-73
2022/09/12 04:48:18;;;;;;;1999.90;999.90;;;17.30;99.90;;;;;;5247447;28;20495;-73
2022/09/12 04:50:49;;;;;;;1999.90;999.90;;;17.50;99.90;;;;;;5247557;28;20376;-74
2022/09/12 05:15:06;;;;;;;1999.90;999.90;;;17.70;99.90;;;;;;5307986;27;20418;-74
2022/09/12 05:17:37;;;;;;;1999.90;999.90;;;17.80;99.90;;;;;;5308227;27;20019;-74
2022/09/12 05:20:08;;;;;;;1999.90;999.90;;;17.90;99.90;;;;;;5341099;27;20121;-74
2022/09/12 05:22:39;;;;;;;1999.90;999.90;;;18.00;99.90;;;;;;5308127;27;20020;-74
2022/09/12 05:25:09;;;;;;;1999.90;999.90;;;17.90;99.90;;;;;;5308432;27;20038;-73
2022/09/12 05:27:40;;;;;;;1999.90;999.90;;;17.70;99.90;;;;;;5308114;27;20015;-72
2022/09/12 05:30:11;;;;;;;1999.90;999.90;;;17.60;99.90;;;;;;5308170;27;20081;-73
2022/09/12 05:32:42;;;;;;;1999.90;999.90;;;17.80;99.90;;;;;;5307867;28;20034;-73
2022/09/12 05:35:13;;;;;;;1999.90;999.90;;;17.90;99.90;;;;;;5308168;27;20027;-73
2022/09/12 05:37:44;;;;;;;1999.90;999.90;;;17.90;99.90;;;;;;5308293;27;20382;-73
2022/09/12 05:40:16;;;;;;;1999.90;999.90;;;17.80;99.90;;;;;;5307859;27;20027;-73
2022/09/12 05:42:47;;;;;;;1999.90;999.90;;;17.90;99.90;;;;;;5306724;28;20383;-72
2022/09/12 05:45:18;;;;;;;1999.90;999.90;;;17.80;99.90;;;;;;5306309;28;20039;-73
2022/09/12 05:47:49;;;;;;;1999.90;999.90;;;17.70;99.90;;;;;;5307949;27;20426;-73
2022/09/12 05:50:20;;;;;;;1999.90;999.90;;;17.60;99.90;;;;;;5307893;27;20025;-72
2022/09/12 05:52:50;;;;;;;1999.90;999.90;;;17.80;99.90;;;;;;5307573;27;20497;-73
2022/09/12 05:55:22;;;;;;;1999.90;999.90;;;17.80;99.90;;;;;;5307305;27;20027;-73
2022/09/12 05:57:52;;;;;;;1999.90;999.90;;;17.70;99.90;;;;;;5307737;27;20021;-72
2022/09/12 06:00:23;;;;;;;1999.90;999.90;;;18.00;99.90;;;;;;5307378;27;20530;-73
2022/09/12 06:02:54;;;;;;;1999.90;999.90;;;18.00;99.90;;;;;;5306196;28;20038;-73
2022/09/12 06:05:25;;;;;;;1999.90;999.90;;;18.10;99.90;;;;;;5307286;27;20024;-73
2022/09/12 06:07:56;;;;;;;1999.90;999.90;;;18.10;99.90;;;;;;5307397;27;20020;-73
2022/09/12 06:10:27;;;;;;;1999.90;999.90;;;17.90;99.90;;;;;;5307566;27;20066;-73
2022/09/12 06:12:58;;;;;;;1999.90;999.90;;;18.00;99.90;;;;;;5305628;28;20031;-73
2022/09/12 06:15:28;;;;;;;1999.90;999.90;;;17.90;99.90;;;;;;5295752;27;20084;-73
2022/09/12 06:17:59;;;;;;;1999.90;999.90;;;18.10;99.90;;;;;;5291685;28;20028;-73
2022/09/12 06:20:30;;;;;;;1999.90;999.90;;;18.30;99.90;;;;;;5293150;27;20035;-74
2022/09/12 06:23:01;;;;;;;1999.90;999.90;;;18.30;99.90;;;;;;5292949;28;20063;-74
2022/09/12 06:25:31;;;;;;;1999.90;999.90;;;18.30;99.90;;;;;;5292696;28;20023;-74
2022/09/12 06:28:03;;;;;;;1999.90;999.90;;;18.40;99.90;;;;;;5293146;28;20028;-74
2022/09/12 06:30:34;;;;;;;1999.90;999.90;;;18.40;99.90;;;;;;5292737;28;20015;-74
2022/09/12 06:33:04;;;;;;;1999.90;999.90;;;18.20;99.90;;;;;;5293065;28;20023;-74
2022/09/12 06:35:37;;;;;;;1999.90;999.90;;;18.40;99.90;;;;;;5291251;28;20106;-74
2022/09/12 06:38:08;;;;;;;1999.90;999.90;;;18.60;99.90;;;;;;5292752;28;20061;-74
2022/09/12 06:40:43;;;;;;;1999.90;999.90;;;18.80;99.90;;;;;;5292717;28;20035;-74
2022/09/12 06:43:14;;;;;;;1999.90;999.90;;;19.00;99.90;;;;;;5292494;28;20524;-74
2022/09/12 06:45:51;;;;;;;1999.90;999.90;;;18.50;99.90;;;;;;5292501;28;20028;-74
2022/09/12 06:48:22;;;;;;;1999.90;999.90;;;18.60;99.90;;;;;;5292433;28;20110;-74
2022/09/12 06:50:56;;;;;;;1999.90;999.90;;;18.70;99.90;;;;;;5292463;28;20092;-73
2022/09/12 06:53:29;;;;;;;1999.90;999.90;;;19.00;99.90;;;;;;5292657;28;20835;-72
2022/09/12 06:56:21;;;;;;;1999.90;999.90;;;18.90;99.90;;;;;;5292337;28;20483;-73
2022/09/12 06:58:54;;;;;;;1999.90;999.90;;;19.20;99.90;;;;;;5290979;28;20027;-73
2022/09/12 07:01:30;;;;;;;1999.90;999.90;;;19.20;99.90;;;;;;5292335;28;20027;-73
2022/09/12 07:04:03;;;;;;;1999.90;999.90;;;19.10;99.90;;;;;;5292316;28;20036;-73
2022/09/12 07:06:42;;;;;;;1999.90;999.90;;;19.30;99.90;;;;;;5292109;28;20043;-73
2022/09/12 07:09:17;;;;;;;1999.90;999.90;;;19.20;99.90;;;;;;5292430;27;20023;-73
2022/09/12 07:11:48;;;;;;;1999.90;999.90;;;19.40;99.90;;;;;;5291083;28;20486;-73
2022/09/12 07:14:18;;;;;;;1999.90;999.90;;;19.30;99.90;;;;;;5290373;28;20132;-73
2022/09/12 07:16:49;;;;;;;1999.90;999.90;;;19.40;99.90;;;;;;5291967;28;20146;-73
2022/09/12 07:19:20;;;;;;;1999.90;999.90;;;19.30;99.90;;;;;;5292341;28;20008;-73
2022/09/12 07:21:51;;;;;;;1999.90;999.90;;;19.20;99.90;;;;;;5290893;28;20470;-73
2022/09/12 07:24:21;;;;;;;1999.90;999.90;;;19.10;99.90;;;;;;5291964;28;20035;-73
2022/09/12 07:26:52;;;;;;;1999.90;999.90;;;19.20;99.90;;;;;;5291032;28;20402;-73
2022/09/12 07:29:23;;;;;;;1999.90;999.90;;;19.10;99.90;;;;;;5291798;28;20024;-73
2022/09/12 07:31:54;;;;;;;1999.90;999.90;;;19.10;99.90;;;;;;5290292;28;20441;-73
2022/09/12 07:34:25;;;;;;;1999.90;999.90;;;19.20;99.90;;;;;;5291520;28;20022;-72
2022/09/12 07:36:55;;;;;;;1999.90;999.90;;;19.00;99.90;;;;;;5290088;28;20051;-73
2022/09/12 07:39:26;;;;;;;1999.90;999.90;;;19.50;99.90;;;;;;5291522;27;20028;-73
2022/09/12 07:41:58;;;;;;;1999.90;999.90;;;19.70;99.90;;;;;;5291655;28;20555;-73
2022/09/12 07:44:28;;;;;;;1999.90;999.90;;;19.70;99.90;;;;;;5291464;28;20089;-73
2022/09/12 07:47:00;;;;;;;1999.90;999.90;;;19.70;99.90;;;;;;5291691;28;20027;-73
2022/09/12 07:49:30;;;;;;;1999.90;999.90;;;19.60;99.90;;;;;;5291741;28;20030;-74
2022/09/12 07:52:01;;;;;;;1999.90;999.90;;;19.50;99.90;;;;;;5291014;28;20031;-73
2022/09/12 07:54:32;;;;;;;1999.90;999.90;;;19.60;99.90;;;;;;5291352;28;20448;-73
2022/09/12 07:57:03;;;;;;;1999.90;999.90;;;19.70;99.90;;;;;;5291554;28;20084;-73
2022/09/12 07:59:34;;;;;;;1999.90;999.90;;;19.80;99.90;;;;;;5291608;28;20023;-73
2022/09/12 08:02:05;;;;;;;1999.90;999.90;;;19.80;99.90;;;;;;5291261;28;20416;-73
2022/09/12 08:04:36;;;;;;;1999.90;999.90;;;19.70;99.90;;;;;;5290985;28;20028;-73
2022/09/12 08:07:08;;;;;;;1999.90;999.90;;;19.70;99.90;;;;;;5291119;28;20383;-74
2022/09/12 08:09:38;;;;;;;1999.90;999.90;;;19.80;99.90;;;;;;5290808;28;20020;-74
2022/09/12 08:12:09;;;;;;;1999.90;999.90;;;19.90;99.90;;;;;;5290848;28;20019;-73
2022/09/12 08:14:40;;;;;;;1999.90;999.90;;;20.20;99.90;;;;;;5290140;28;20448;-76
2022/09/12 08:17:11;;;;;;;1999.90;999.90;;;20.30;99.90;;;;;;5290654;28;20032;-76
2022/09/12 08:19:42;;;;;;;1999.90;999.90;;;20.50;99.90;;;;;;5290929;28;20020;-73
2022/09/12 08:22:13;;;;;;;1999.90;999.90;;;20.50;99.90;;;;;;5290782;28;20065;-74
2022/09/12 08:24:44;;;;;;;1999.90;999.90;;;20.50;99.90;;;;;;5290557;28;20444;-73
2022/09/12 08:27:15;;;;;;;1999.90;999.90;;;20.60;99.90;;;;;;5290889;28;20032;-73
2022/09/12 08:29:45;;;;;;;1999.90;999.90;;;20.60;99.90;;;;;;5290688;28;20023;-73
2022/09/12 08:32:16;;;;;;;1999.90;999.90;;;20.80;99.90;;;;;;5290410;28;20111;-73
2022/09/12 08:34:47;;;;;;;1999.90;999.90;;;20.70;99.90;;;;;;5290325;28;20065;-73
2022/09/12 08:37:18;;;;;;;1999.90;999.90;;;20.90;99.90;;;;;;5290155;28;20059;-73
2022/09/12 08:39:49;;;;;;;1999.90;999.90;;;21.10;99.90;;;;;;5290523;28;20058;-73
2022/09/12 08:42:39;;;;;;;1999.90;999.90;;;20.90;99.90;;;;;;5290249;28;20039;-73
2022/09/12 08:45:18;;;;;;;;;;;21.10;99.90;;;;;;5290069;28;20122;-74
2022/09/12 08:47:50;;;;;;;1999.90;999.90;;;21.30;99.90;;;;;;5289488;28;19915;-76
2022/09/12 08:50:21;;;;;;;1999.90;999.90;;;21.40;99.90;;;;;;5289299;28;20019;-77
2022/09/12 08:53:11;;;;;;;1999.90;999.90;;;21.60;99.90;;;;;;5289230;28;20027;-76
2022/09/12 08:55:45;;;;;;;;;;;21.70;99.90;;;;;;5289762;28;20031;-74
2022/09/12 08:58:18;;;;;;;1999.90;999.90;;;21.90;99.90;;;;;;5289909;28;19904;-74
2022/09/12 09:01:08;;;;;;;1999.90;999.90;;;22.60;99.90;;;;;;5289943;28;20070;-73
2022/09/12 09:03:58;;;;;;;1999.90;999.90;;;22.10;99.90;;;;;;5289588;28;20034;-73
2022/09/12 09:07:00;;;;;;;1999.90;999.90;;;22.40;99.90;;;;;;5289987;28;20110;-73
2022/09/12 09:10:12;;;;;;;1999.90;999.90;;;23.10;99.90;;;;;;5289761;28;20124;-73
2022/09/12 09:12:54;;;;;;;1999.90;999.90;;;23.40;99.90;;;;;;5289032;28;20118;-73
2022/09/12 09:16:03;;;;;;;1999.90;999.90;;;23.00;99.90;;;;;;5289606;28;20035;-74
2022/09/12 09:18:35;;;;;;;;;;;23.60;99.90;;;;;;5289990;28;20020;-73
2022/09/12 09:21:22;;;;;;;1999.90;999.90;;;23.90;99.90;;;;;;5289931;28;19949;-73
2022/09/12 09:24:01;;;;;;;1999.90;999.90;;;24.20;99.90;;;;;;5289557;28;20032;-73
2022/09/12 09:26:38;;;;;;;1999.90;999.90;;;24.30;99.90;;;;;;5289519;28;20020;-74
2022/09/12 09:29:21;;;;;;;1999.90;999.90;;;24.60;99.90;;;;;;5289720;28;20097;-73
2022/09/12 09:31:56;;;;;;;1999.90;999.90;;;24.50;99.90;;;;;;5289692;28;20030;-73
2022/09/12 09:34:30;;;;;;;1999.90;999.90;;;24.30;99.90;;;;;;5287925;28;20470;-73
2022/09/12 09:37:17;;;;;;;1999.90;999.90;;;24.30;99.90;;;;;;5289554;28;20055;-73
2022/09/12 09:39:48;;;;;;;1999.90;999.90;;;24.20;99.90;;;;;;5289519;28;20108;-73
2022/09/12 09:42:50;;;;;;;1999.90;999.90;;;24.20;99.90;;;;;;5289165;28;20103;-73
2022/09/12 09:45:23;;;;;;;1999.90;999.90;;;23.90;99.90;;;;;;5289438;28;20024;-73
2022/09/12 09:48:14;;;;;;;1999.90;999.90;;;24.30;99.90;;;;;;5289289;28;20019;-73
2022/09/12 09:50:47;;;;;;;1999.90;999.90;;;24.20;99.90;;;;;;5292150;28;20031;-74
2022/09/12 09:53:33;;;;;;;1999.90;999.90;;;24.40;99.90;;;;;;5293312;28;20040;-73
2022/09/12 09:56:25;;;;;;;1999.90;999.90;;;24.30;99.90;;;;;;5293589;27;20035;-73
2022/09/12 09:58:56;;;;;;;1999.90;999.90;;;24.50;99.90;;;;;;5293259;28;20058;-73
2022/09/12 10:01:27;;;;;;;1999.90;999.90;;;24.30;99.90;;;;;;5293151;28;20114;-73
2022/09/12 10:03:58;;;;;;;1999.90;999.90;;;24.10;99.90;;;;;;5292806;28;20032;-74
2022/09/12 10:06:31;;;;;;;1999.90;999.90;;;24.10;99.90;;;;;;5293171;28;20034;-74
2022/09/12 10:09:07;;;;;;;1999.90;999.90;;;24.40;99.90;;;;;;5292914;28;20452;-73
2022/09/12 10:11:38;;;;;;;1999.90;999.90;;;24.80;99.90;;;;;;5292355;28;20023;-74
2022/09/12 10:14:28;;;;;;;1999.90;999.90;;;25.50;99.90;;;;;;5292172;28;20077;-73
2022/09/12 10:16:58;;;;;;;1999.90;999.90;;;25.90;99.90;;;;;;5292673;28;20540;-74
2022/09/12 10:19:38;;;;;;;1999.90;999.90;;;26.20;99.90;;;;;;5292608;28;20035;-74
2022/09/12 10:22:17;;;;;;;1999.90;999.90;;;26.50;99.90;;;;;;5292811;27;20039;-74
2022/09/12 10:24:53;;;;;;;1999.90;999.90;;;26.20;99.90;;;;;;5292610;28;20070;-74
2022/09/12 10:27:29;;;;;;;1999.90;999.90;;;25.70;99.90;;;;;;5292592;28;20020;-74
2022/09/12 10:30:17;;;;;;;1999.90;999.90;;;25.50;99.90;;;;;;5292589;28;20057;-74
2022/09/12 10:32:49;;;;;;;1999.90;999.90;;;25.50;99.90;;;;;;5292676;28;20024;-74
2022/09/12 10:35:23;;;;;;;1999.90;999.90;;;25.40;99.90;;;;;;5292659;28;20038;-74
2022/09/12 10:38:05;;;;;;;1999.90;999.90;;;24.90;99.90;;;;;;5292110;28;20023;-75
2022/09/12 10:40:39;;;;;;;1999.90;999.90;;;24.60;99.90;;;;;;5291762;28;20103;-75
2022/09/12 10:43:27;;;;;;;1999.90;999.90;;;24.40;99.90;;;;;;5290311;28;20054;-75
2022/09/12 10:46:19;;;;;;;1999.90;999.90;;;23.90;99.90;;;;;;5292558;28;20016;-75
2022/09/12 10:49:10;;;;;;;1999.90;999.90;;;23.80;99.90;;;;;;5290838;28;20522;-74
2022/09/12 10:51:42;;;;;;;1999.90;999.90;;;23.90;99.90;;;;;;5291230;28;20400;-74
2022/09/12 10:54:17;;;;;;;1999.90;999.90;;;24.00;99.90;;;;;;5291341;28;20046;-74
2022/09/12 10:57:23;;;;;;;1999.90;999.90;;;24.20;99.90;;;;;;5291472;28;20513;-74
2022/09/12 11:00:19;;;;;;;1999.90;999.90;;;24.30;99.90;;;;;;5283989;28;20072;-73
2022/09/12 11:03:10;;;;;;;1999.90;999.90;;;24.20;99.90;;;;;;5291314;28;20080;-74
2022/09/12 11:06:01;;;;;;;1999.90;999.90;;;24.40;99.90;;;;;;5291233;28;20386;-74
2022/09/12 11:08:35;;;;;;;1999.90;999.90;;;24.30;99.90;;;;;;5291210;28;20098;-74
2022/09/12 11:11:22;;;;;;;1999.90;999.90;;;24.30;99.90;;;;;;5291077;28;20107;-74
2022/09/12 11:14:02;;;;;;;1999.90;999.90;;;24.20;99.90;;;;;;5290865;28;20062;-74
2022/09/12 11:16:52;;;;;;;1999.90;999.90;;;24.90;99.90;;;;;;5291076;28;20106;-74
2022/09/12 11:19:53;;;;;;;1999.90;999.90;;;24.80;99.90;;;;;;5291098;28;20119;-74
2022/09/12 11:22:49;;;;;;;1999.90;999.90;;;25.00;99.90;;;;;;5290925;28;20069;-74
2022/09/12 11:25:38;;;;;;;1999.90;999.90;;;25.00;99.90;;;;;;5291012;28;20456;-74
2022/09/12 11:28:38;;;;;;;1999.90;999.90;;;24.80;99.90;;;;;;5291057;28;20027;-74
2022/09/12 11:31:21;;;;;;;1999.90;999.90;;;24.50;99.90;;;;;;5290668;28;20039;-74
2022/09/12 11:33:52;;;;;;;1999.90;999.90;;;24.60;99.90;;;;;;5290825;27;20031;-74
2022/09/12 11:36:39;;;;;;;1999.90;999.90;;;24.50;99.90;;;;;;5290348;27;20028;-74
2022/09/12 11:39:27;;;;;;;1999.90;999.90;;;24.20;99.90;;;;;;5290646;28;20023;-74
2022/09/12 11:42:04;;;;;;;1999.90;999.90;;;24.60;99.90;;;;;;5290736;28;20027;-74
2022/09/12 11:44:53;;;;;;;1999.90;999.90;;;24.40;99.90;;;;;;5290655;28;20040;-74
2022/09/12 11:47:27;;;;;;;1999.90;999.90;;;24.30;99.90;;;;;;5290749;28;20038;-74
2022/09/12 11:50:03;;;;;;;1999.90;999.90;;;24.30;99.90;;;;;;5290420;28;20394;-74
2022/09/12 11:52:37;;;;;;;1999.90;999.90;;;24.80;99.90;;;;;;5290197;28;20085;-74
2022/09/12 11:55:21;;;;;;;1999.90;999.90;;;25.30;99.90;;;;;;5289885;28;20103;-74
2022/09/12 11:57:53;;;;;;;1999.90;999.90;;;25.30;99.90;;;;;;5290261;28;20023;-74
2022/09/12 12:00:43;;;;;;;1999.90;999.90;;;26.10;99.90;;;;;;5288942;28;20523;-74
2022/09/12 12:03:22;;;;;;;1999.90;999.90;;;26.30;99.90;;;;;;5289897;28;20028;-75
2022/09/12 12:06:14;;;;;;;1999.90;999.90;;;26.40;99.90;;;;;;5289973;28;20028;-75
2022/09/12 12:08:46;;;;;;;1999.90;999.90;;;25.90;99.90;;;;;;5289967;28;20253;-75
2022/09/12 12:11:47;;;;;;;1999.90;999.90;;;26.30;99.90;;;;;;5289996;28;20027;-74
2022/09/12 12:14:42;;;;;;;1999.90;999.90;;;26.20;99.90;;;;;;5288118;28;20403;-74
2022/09/12 12:17:15;;;;;;;1999.90;999.90;;;26.30;99.90;;;;;;5289947;28;20023;-74
2022/09/12 12:19:56;;;;;;;1999.90;999.90;;;26.30;99.90;;;;;;5289732;28;20028;-75
2022/09/12 12:22:27;;;;;;;1999.90;999.90;;;26.20;99.90;;;;;;5289768;28;20032;-74
2022/09/12 12:25:03;;;;;;;1999.90;999.90;;;26.50;99.90;;;;;;5289693;28;20612;-75
2022/09/12 12:27:43;;;;;;;1999.90;999.90;;;26.60;99.90;;;;;;5289706;28;20494;-74
2022/09/12 12:30:30;;;;;;;1999.90;999.90;;;26.70;99.90;;;;;;5289645;28;20031;-74
2022/09/12 12:33:09;;;;;;;1999.90;999.90;;;26.70;99.90;;;;;;5289475;28;20032;-74
2022/09/12 12:35:46;;;;;;;;;;;26.80;99.90;;;;;;5290113;28;20028;-75
2022/09/12 12:38:30;;;;;;;1999.90;999.90;;;26.80;99.90;;;;;;5289484;28;20475;-74
2022/09/12 12:41:16;;;;;;;1999.90;999.90;;;25.60;99.90;;;;;;5270774;28;20119;-74
2022/09/12 12:43:49;;;;;;;1999.90;999.90;;;26.50;99.90;;;;;;5268897;28;20044;-74
2022/09/12 12:46:25;;;;;;;1999.90;999.90;;;26.40;99.90;;;;;;5269414;28;20042;-74
2022/09/12 12:49:08;;;;;;;1999.90;999.90;;;25.70;99.90;;;;;;5268929;28;20070;-74
2022/09/12 12:51:54;;;;;;;1999.90;999.90;;;26.20;99.90;;;;;;5268912;28;20016;-74
2022/09/12 12:54:29;;;;;;;1999.90;999.90;;;27.10;99.90;;;;;;5268890;28;20039;-74
2022/09/12 12:57:16;;;;;;;1999.90;999.90;;;27.20;99.90;;;;;;5269005;28;20460;-74
2022/09/12 13:00:22;;;;;;;1999.90;999.90;;;26.60;99.90;;;;;;5268977;28;20035;-74
2022/09/12 13:03:09;;;;;;;1999.90;999.90;;;26.20;99.90;;;;;;5224879;28;20587;-74
2022/09/12 13:05:45;;;;;;;1999.90;999.90;;;26.30;99.90;;;;;;5265559;28;20051;-74
2022/09/12 13:08:15;;;;;;;1999.90;999.90;;;26.30;99.90;;;;;;5268776;28;20493;-74
2022/09/12 13:11:11;;;;;;;1999.90;999.90;;;26.50;99.90;;;;;;5268952;28;20028;-74
2022/09/12 13:13:52;;;;;;;1999.90;999.90;;;26.80;99.90;;;;;;5268487;28;20082;-74